sensor_id;sensor_type;location;lat;lon;timestamp;pressure;altitude;pressure_sealevel;temperature;humidity
3832;BME280;12460;42.662;23.288;2024-01-30T00:05:46;96493.34;;;1.37;53.10
3832;BME280;12460;42.662;23.288;2024-01-30T00:20:48;96461.34;;;1.18;52.37
3832;BME280;12460;42.662;23.288;2024-01-30T00:35:50;96481.34;;;1.13;52.71
3832;BME280;12460;42.662;23.288;2024-01-30T00:50:52;96475.63;;;1.25;52.04
3832;BME280;12460;42.662;23.288;2024-01-30T01:05:54;96467.97;;;1.29;52.65
3832;BME280;12460;42.662;23.288;2024-01-30T01:20:55;96505.31;;;0.89;52.90
3832;BME280;12460;42.662;23.288;2024-01-30T01:35:57;96494.56;;;1.00;52.81
3832;BME280;12460;42.662;23.288;2024-01-30T01:50:59;96473.75;;;0.59;52.81
3832;BME280;12460;42.662;23.288;2024-01-30T02:06:02;96497.53;;;0.38;53.58
3832;BME280;12460;42.662;23.288;2024-01-30T02:21:04;96501.56;;;0.55;53.51
3832;BME280;12460;42.662;23.288;2024-01-30T02:36:06;96495.53;;;0.39;53.84
3832;BME280;12460;42.662;23.288;2024-01-30T02:51:08;96482.19;;;0.07;54.21
3832;BME280;12460;42.662;23.288;2024-01-30T03:06:10;96469.50;;;-0.13;54.18
3832;BME280;12460;42.662;23.288;2024-01-30T03:21:12;96487.84;;;0.03;54.21
3832;BME280;12460;42.662;23.288;2024-01-30T03:36:15;96481.16;;;0.13;53.70
3832;BME280;12460;42.662;23.288;2024-01-30T03:51:17;96452.38;;;0.02;53.05
3832;BME280;12460;42.662;23.288;2024-01-30T04:06:19;96471.88;;;0.07;51.52
3832;BME280;12460;42.662;23.288;2024-01-30T04:21:21;96472.13;;;0.31;51.58
3832;BME280;12460;42.662;23.288;2024-01-30T04:36:23;96475.22;;;0.33;51.58
3832;BME280;12460;42.662;23.288;2024-01-30T04:51:25;96464.91;;;0.33;51.56
3832;BME280;12460;42.662;23.288;2024-01-30T05:06:27;96504.41;;;0.83;51.02
3832;BME280;12460;42.662;23.288;2024-01-30T05:21:29;96503.88;;;0.57;51.61
3832;BME280;12460;42.662;23.288;2024-01-30T05:36:31;96489.13;;;0.51;51.47
3832;BME280;12460;42.662;23.288;2024-01-30T05:51:33;96502.31;;;0.07;51.88
3832;BME280;12460;42.662;23.288;2024-01-30T06:06:35;96491.63;;;-0.13;52.46
3832;BME280;12460;42.662;23.288;2024-01-30T06:21:37;96508.81;;;0.62;51.17
3832;BME280;12460;42.662;23.288;2024-01-30T06:36:39;96518.34;;;0.70;50.72
3832;BME280;12460;42.662;23.288;2024-01-30T06:51:41;96528.13;;;1.11;50.31
3832;BME280;12460;42.662;23.288;2024-01-30T07:06:43;96517.56;;;3.95;44.10
3832;BME280;12460;42.662;23.288;2024-01-30T07:21:46;96519.22;;;4.65;41.64
3832;BME280;12460;42.662;23.288;2024-01-30T07:36:48;96510.03;;;4.94;39.50
3832;BME280;12460;42.662;23.288;2024-01-30T07:51:49;96496.78;;;6.21;35.82
3832;BME280;12460;42.662;23.288;2024-01-30T08:06:51;96500.91;;;5.54;36.71
3832;BME280;12460;42.662;23.288;2024-01-30T08:21:53;96490.31;;;6.72;34.82
3832;BME280;12460;42.662;23.288;2024-01-30T08:36:55;96516.59;;;6.85;34.41
3832;BME280;12460;42.662;23.288;2024-01-30T08:51:57;96507.59;;;7.07;33.15
3832;BME280;12460;42.662;23.288;2024-01-30T09:06:59;96524.59;;;8.43;32.06
3832;BME280;12460;42.662;23.288;2024-01-30T09:22:01;96507.47;;;9.08;32.00
3832;BME280;12460;42.662;23.288;2024-01-30T09:37:05;96481.63;;;9.89;30.87
3832;BME280;12460;42.662;23.288;2024-01-30T09:52:07;96481.44;;;7.97;34.10
3832;BME280;12460;42.662;23.288;2024-01-30T10:07:10;96489.00;;;5.79;37.53
3832;BME280;12460;42.662;23.288;2024-01-30T10:22:13;96463.34;;;4.89;38.83
3832;BME280;12460;42.662;23.288;2024-01-30T10:37:16;96484.38;;;4.90;40.08
3832;BME280;12460;42.662;23.288;2024-01-30T10:52:19;96481.53;;;4.50;39.80
3832;BME280;12460;42.662;23.288;2024-01-30T11:07:29;96444.19;;;5.88;37.48
3832;BME280;12460;42.662;23.288;2024-01-30T11:22:31;96451.75;;;3.63;40.81
3832;BME280;12460;42.662;23.288;2024-01-30T11:37:36;96446.63;;;4.05;41.80
3832;BME280;12460;42.662;23.288;2024-01-30T11:52:40;96431.66;;;4.17;41.26
3832;BME280;12460;42.662;23.288;2024-01-30T12:07:45;96410.97;;;3.30;43.34
3832;BME280;12460;42.662;23.288;2024-01-30T12:22:48;96388.56;;;4.67;41.47
3832;BME280;12460;42.662;23.288;2024-01-30T12:37:50;96360.34;;;5.77;38.88
3832;BME280;12460;42.662;23.288;2024-01-30T12:52:52;96367.72;;;5.80;38.65
3832;BME280;12460;42.662;23.288;2024-01-30T13:07:54;96339.81;;;5.23;38.76
3832;BME280;12460;42.662;23.288;2024-01-30T13:22:58;96326.25;;;5.36;38.22
3832;BME280;12460;42.662;23.288;2024-01-30T13:38:00;96351.50;;;5.02;40.43
3832;BME280;12460;42.662;23.288;2024-01-30T13:53:03;96362.53;;;4.30;41.52
3832;BME280;12460;42.662;23.288;2024-01-30T14:08:06;96352.38;;;3.19;44.85
3832;BME280;12460;42.662;23.288;2024-01-30T14:23:09;96348.69;;;2.69;46.10
3832;BME280;12460;42.662;23.288;2024-01-30T14:38:11;96356.44;;;2.42;46.69
3832;BME280;12460;42.662;23.288;2024-01-30T14:53:12;96348.06;;;2.27;47.19
3832;BME280;12460;42.662;23.288;2024-01-30T15:08:14;96363.97;;;2.27;47.17
3832;BME280;12460;42.662;23.288;2024-01-30T15:23:16;96338.75;;;1.50;48.41
3832;BME280;12460;42.662;23.288;2024-01-30T15:38:19;96368.91;;;1.48;49.25
3832;BME280;12460;42.662;23.288;2024-01-30T15:53:23;96369.84;;;1.54;49.11
3832;BME280;12460;42.662;23.288;2024-01-30T16:08:27;96393.66;;;1.01;50.12
3832;BME280;12460;42.662;23.288;2024-01-30T16:23:29;96410.88;;;0.96;50.71
3832;BME280;12460;42.662;23.288;2024-01-30T16:38:31;96414.38;;;1.32;50.09
3832;BME280;12460;42.662;23.288;2024-01-30T16:53:33;96402.38;;;1.35;49.96
3832;BME280;12460;42.662;23.288;2024-01-30T17:08:35;96396.41;;;1.19;50.12
3832;BME280;12460;42.662;23.288;2024-01-30T17:23:37;96415.19;;;1.06;50.56
3832;BME280;12460;42.662;23.288;2024-01-30T17:38:40;96411.34;;;1.12;51.13
3832;BME280;12460;42.662;23.288;2024-01-30T17:53:42;96412.13;;;1.04;50.71
3832;BME280;12460;42.662;23.288;2024-01-30T18:08:44;96408.41;;;1.16;50.74
3832;BME280;12460;42.662;23.288;2024-01-30T18:23:46;96389.94;;;1.13;50.09
3832;BME280;12460;42.662;23.288;2024-01-30T18:38:49;96396.72;;;1.12;50.54
3832;BME280;12460;42.662;23.288;2024-01-30T18:53:50;96399.47;;;1.12;50.50
3832;BME280;12460;42.662;23.288;2024-01-30T19:08:52;96381.50;;;1.07;51.54
3832;BME280;12460;42.662;23.288;2024-01-30T19:23:55;96369.97;;;0.82;51.96
3832;BME280;12460;42.662;23.288;2024-01-30T19:39:00;96394.88;;;0.91;52.63
3832;BME280;12460;42.662;23.288;2024-01-30T19:54:02;96378.13;;;0.76;52.62
3832;BME280;12460;42.662;23.288;2024-01-30T20:09:04;96377.38;;;0.76;52.36
3832;BME280;12460;42.662;23.288;2024-01-30T20:24:06;96381.66;;;0.67;52.52
3832;BME280;12460;42.662;23.288;2024-01-30T20:39:10;96373.81;;;0.57;52.38
3832;BME280;12460;42.662;23.288;2024-01-30T20:54:13;96363.53;;;0.48;52.64
3832;BME280;12460;42.662;23.288;2024-01-30T21:09:15;96347.22;;;0.32;52.73
3832;BME280;12460;42.662;23.288;2024-01-30T21:24:18;96342.44;;;0.15;52.84
3832;BME280;12460;42.662;23.288;2024-01-30T21:39:19;96354.75;;;0.23;53.12
3832;BME280;12460;42.662;23.288;2024-01-30T21:54:21;96334.91;;;0.06;52.96
3832;BME280;12460;42.662;23.288;2024-01-30T22:09:23;96346.38;;;-0.05;53.26
3832;BME280;12460;42.662;23.288;2024-01-30T22:24:25;96335.31;;;-0.14;53.23
3832;BME280;12460;42.662;23.288;2024-01-30T22:39:27;96324.22;;;-0.23;53.11
3832;BME280;12460;42.662;23.288;2024-01-30T22:54:29;96326.09;;;-0.20;53.79
3832;BME280;12460;42.662;23.288;2024-01-30T23:09:31;96298.09;;;-0.40;54.24
3832;BME280;12460;42.662;23.288;2024-01-30T23:24:33;96304.56;;;-0.34;53.73
3832;BME280;12460;42.662;23.288;2024-01-30T23:39:34;96300.56;;;-0.42;53.99
3832;BME280;12460;42.662;23.288;2024-01-30T23:54:36;96289.63;;;-0.45;54.98
